Time;durP1;ratioP1;P1;durP2;ratioP2;P2;SDS_P1;SDS_P2;PMS_P1;PMS_P2;Temp;Humidity;BMP_temperature;BMP_pressure;BME280_temperature;BME280_humidity;BME280_pressure;Samples;Min_cycle;Max_cycle;Signal;HPM_P1;HPM_P2
2022/11/10 00:01:34;;;;;;;19.30;6.13;;;10.70;99.90;;;;;;5018888;28;20291;-72
2022/11/10 00:04:03;;;;;;;19.43;6.10;;;10.70;99.90;;;;;;4997186;28;20300;-72
2022/11/10 00:06:33;;;;;;;15.40;5.77;;;10.70;99.90;;;;;;5018383;28;20290;-72
2022/11/10 00:09:00;;;;;;;26.40;6.40;;;10.70;99.90;;;;;;5022641;28;20765;-73
2022/11/10 00:11:27;;;;;;;21.80;6.93;;;10.80;99.90;;;;;;5020445;28;20615;-72
2022/11/10 00:19:27;;;;;;;22.43;6.73;;;10.80;99.90;;;;;;5021518;28;20264;-72
2022/11/10 00:21:54;;;;;;;25.90;6.63;;;10.80;99.90;;;;;;5021303;28;20304;-73
2022/11/10 00:24:22;;;;;;;19.20;6.57;;;10.70;99.90;;;;;;5010308;28;20201;-71
2022/11/10 00:26:50;;;;;;;22.27;7.40;;;10.70;99.90;;;;;;5023588;28;20209;-71
2022/11/10 00:29:17;;;;;;;25.70;7.53;;;10.80;99.90;;;;;;5022612;28;20297;-72
2022/11/10 00:31:43;;;;;;;27.50;8.03;;;10.80;99.90;;;;;;5030173;28;20213;-72
2022/11/10 00:34:15;;;;;;;26.47;8.23;;;10.80;99.90;;;;;;5009913;28;20677;-72
2022/11/10 00:36:43;;;;;;;26.93;8.23;;;10.80;99.90;;;;;;5020958;28;20715;-72
2022/11/10 00:39:10;;;;;;;20.73;8.40;;;10.80;99.90;;;;;;5016295;28;20245;-72
2022/11/10 00:41:37;;;;;;;35.50;8.70;;;10.80;99.90;;;;;;5021854;28;20675;-72
2022/11/10 00:44:04;;;;;;;26.47;8.00;;;10.80;99.90;;;;;;5005072;28;20240;-72
2022/11/10 00:46:30;;;;;;;25.10;8.73;;;10.70;99.90;;;;;;5022536;28;20203;-73
2022/11/10 00:48:57;;;;;;;28.43;7.67;;;10.70;99.90;;;;;;5023505;28;20217;-72
2022/11/10 00:51:27;;;;;;;23.73;7.30;;;10.80;99.90;;;;;;5024384;28;20236;-72
2022/11/10 00:53:54;;;;;;;26.40;7.23;;;10.70;99.90;;;;;;5022387;28;20288;-72
2022/11/10 00:56:21;;;;;;;19.43;7.07;;;10.70;99.90;;;;;;5020991;28;20213;-71
2022/11/10 00:58:49;;;;;;;28.73;7.73;;;10.60;99.90;;;;;;5022137;28;20391;-71
2022/11/10 01:01:20;;;;;;;26.03;6.97;;;10.60;99.90;;;;;;5015566;28;20213;-73
2022/11/10 01:03:46;;;;;;;30.50;9.17;;;10.60;99.90;;;;;;5023386;28;20244;-74
2022/11/10 01:06:15;;;;;;;24.07;7.73;;;10.50;99.90;;;;;;5020533;28;20309;-72
2022/11/10 01:08:43;;;;;;;28.20;7.80;;;10.50;99.90;;;;;;5017101;28;20221;-72
2022/11/10 01:11:21;;;;;;;29.10;8.13;;;10.50;99.90;;;;;;5022111;28;20202;-72
2022/11/10 01:13:50;;;;;;;23.90;7.37;;;10.50;99.90;;;;;;5020052;28;20305;-72
2022/11/10 01:16:22;;;;;;;29.03;9.53;;;10.50;99.90;;;;;;5021761;28;20301;-71
2022/11/10 01:18:50;;;;;;;21.03;7.73;;;10.40;99.90;;;;;;5023538;28;20213;-73
2022/11/10 01:21:18;;;;;;;23.83;7.27;;;10.40;99.90;;;;;;5026602;28;20313;-72
2022/11/10 01:23:45;;;;;;;21.97;7.50;;;10.40;99.90;;;;;;5024665;28;20349;-73
2022/11/10 01:26:13;;;;;;;26.03;8.67;;;10.40;99.90;;;;;;5005407;28;20291;-72
2022/11/10 01:28:40;;;;;;;26.63;9.17;;;10.40;99.90;;;;;;5023479;28;20618;-72
2022/11/10 01:31:10;;;;;;;26.47;9.30;;;10.30;99.90;;;;;;5033097;28;20247;-72
2022/11/10 01:33:38;;;;;;;39.40;9.70;;;10.40;99.90;;;;;;5011755;28;20202;-72
2022/11/10 01:36:06;;;;;;;27.90;9.67;;;10.30;99.90;;;;;;5022685;28;20339;-72
2022/11/10 01:38:35;;;;;;;27.97;9.90;;;10.30;99.90;;;;;;5021726;28;20475;-72
2022/11/10 01:41:07;;;;;;;24.07;9.93;;;10.30;99.90;;;;;;5026969;28;20201;-72
2022/11/10 01:43:34;;;;;;;27.63;9.00;;;10.30;99.90;;;;;;5022843;28;20323;-72
2022/11/10 01:46:08;;;;;;;30.90;10.17;;;10.30;99.90;;;;;;5005004;28;20252;-73
2022/11/10 01:48:44;;;;;;;27.57;11.57;;;10.30;99.90;;;;;;5005464;28;20245;-72
2022/11/10 01:51:22;;;;;;;29.47;9.90;;;10.30;99.90;;;;;;5025363;28;20224;-72
2022/11/10 01:53:55;;;;;;;24.77;10.20;;;10.30;99.90;;;;;;5032286;28;20203;-72
2022/11/10 01:56:24;;;;;;;33.33;12.20;;;10.30;99.90;;;;;;5019433;28;20300;-72
2022/11/10 01:58:57;;;;;;;24.47;10.77;;;10.20;99.90;;;;;;5025563;28;20267;-73
2022/11/10 02:01:24;;;;;;;32.47;10.90;;;10.20;99.90;;;;;;5022581;28;20243;-72
2022/11/10 02:04:02;;;;;;;35.33;11.77;;;10.20;99.90;;;;;;5021780;28;20228;-73
2022/11/10 02:06:34;;;;;;;19.87;10.40;;;10.20;99.90;;;;;;5024322;28;20322;-72
2022/11/10 02:09:01;;;;;;;29.00;11.70;;;10.20;99.90;;;;;;5024151;28;20200;-71
2022/11/10 02:11:30;;;;;;;40.20;13.40;;;10.20;99.90;;;;;;5002901;28;20226;-72
2022/11/10 02:13:59;;;;;;;42.23;14.33;;;10.20;99.90;;;;;;5022390;28;20244;-72
2022/11/10 02:16:26;;;;;;;34.07;11.93;;;10.20;99.90;;;;;;5023810;28;20694;-72
2022/11/10 02:18:53;;;;;;;31.07;12.27;;;10.20;99.90;;;;;;5023098;28;20803;-72
2022/11/10 02:21:20;;;;;;;38.77;12.90;;;10.20;99.90;;;;;;5023292;28;20218;-72
2022/11/10 02:23:52;;;;;;;30.37;12.23;;;10.10;99.90;;;;;;5025880;28;20244;-73
2022/11/10 02:26:26;;;;;;;31.70;12.57;;;10.10;99.90;;;;;;5021518;28;20569;-75
2022/11/10 02:28:53;;;;;;;40.27;14.60;;;10.10;99.90;;;;;;5023063;28;20271;-72
2022/11/10 02:31:20;;;;;;;34.07;12.93;;;10.10;99.90;;;;;;5024693;28;20285;-72
2022/11/10 02:33:47;;;;;;;33.20;12.77;;;10.20;99.90;;;;;;5027010;28;20221;-73
2022/11/10 02:36:13;;;;;;;35.40;13.80;;;10.20;99.90;;;;;;5010993;28;20249;-73
2022/11/10 02:38:40;;;;;;;39.27;13.10;;;10.20;99.90;;;;;;5011553;28;20570;-72
2022/11/10 02:41:07;;;;;;;27.60;13.47;;;10.20;99.90;;;;;;5020743;28;20205;-73
2022/11/10 02:43:34;;;;;;;34.87;13.50;;;10.20;99.90;;;;;;5021524;28;20218;-72
2022/11/10 02:46:01;;;;;;;28.60;13.23;;;10.20;99.90;;;;;;5023203;28;20708;-72
2022/11/10 02:48:27;;;;;;;39.30;14.53;;;10.20;99.90;;;;;;5024222;28;20488;-74
2022/11/10 02:50:54;;;;;;;36.30;14.27;;;10.20;99.90;;;;;;5024394;28;20311;-73
2022/11/10 02:53:21;;;;;;;36.50;14.40;;;10.20;99.90;;;;;;5021002;28;20861;-72
2022/11/10 02:55:48;;;;;;;33.30;15.10;;;10.20;99.90;;;;;;5023872;28;20210;-73
2022/11/10 02:58:15;;;;;;;40.27;16.40;;;10.20;99.90;;;;;;5019706;28;20269;-72
2022/11/10 03:00:42;;;;;;;36.87;14.70;;;10.20;99.90;;;;;;5024850;28;20621;-73
2022/11/10 03:03:08;;;;;;;35.13;15.53;;;10.20;99.90;;;;;;4992000;28;20320;-73
2022/11/10 03:05:35;;;;;;;39.87;15.90;;;10.20;99.90;;;;;;5022990;28;20214;-73
2022/11/10 03:08:03;;;;;;;37.00;15.50;;;10.20;99.90;;;;;;5020528;28;20235;-73
2022/11/10 03:10:30;;;;;;;35.90;16.50;;;10.20;99.90;;;;;;5027222;28;20211;-71
2022/11/10 03:13:00;;;;;;;35.03;16.40;;;10.20;99.90;;;;;;5005574;28;20248;-73
2022/11/10 03:15:28;;;;;;;37.97;15.97;;;10.20;99.90;;;;;;5022572;28;20507;-73
2022/11/10 03:17:55;;;;;;;42.27;16.17;;;10.20;99.90;;;;;;5022513;28;20343;-73
2022/11/10 03:20:22;;;;;;;40.43;18.17;;;10.10;99.90;;;;;;5023404;28;20257;-73
2022/11/10 03:22:49;;;;;;;39.10;16.70;;;10.20;99.90;;;;;;5020645;28;20263;-72
2022/11/10 03:25:15;;;;;;;42.13;17.57;;;10.20;99.90;;;;;;5018651;28;20213;-73
2022/11/10 03:27:42;;;;;;;37.70;16.33;;;10.20;99.90;;;;;;5010575;28;20252;-72
2022/11/10 03:30:09;;;;;;;37.10;16.93;;;10.20;99.90;;;;;;5026010;28;20240;-73
2022/11/10 03:32:36;;;;;;;36.77;16.97;;;10.20;99.90;;;;;;5023538;28;20198;-73
2022/11/10 03:35:03;;;;;;;42.50;15.77;;;10.20;99.90;;;;;;5022137;28;20293;-72
2022/11/10 03:37:30;;;;;;;38.30;15.80;;;10.20;99.90;;;;;;5004838;28;20622;-71
2022/11/10 03:39:57;;;;;;;34.50;15.90;;;10.20;99.90;;;;;;5006555;28;20259;-72
2022/11/10 03:42:23;;;;;;;39.67;15.73;;;10.10;99.90;;;;;;5005085;28;20342;-73
2022/11/10 03:44:50;;;;;;;34.53;16.33;;;10.10;99.90;;;;;;5019448;28;20276;-72
2022/11/10 03:47:17;;;;;;;37.87;15.23;;;10.20;99.90;;;;;;5022002;28;20278;-72
2022/11/10 03:49:44;;;;;;;41.43;14.73;;;10.10;99.90;;;;;;5025877;28;20267;-73
2022/11/10 03:52:10;;;;;;;34.80;15.10;;;10.20;99.90;;;;;;5019407;28;20317;-72
2022/11/10 03:54:37;;;;;;;36.87;14.33;;;10.20;99.90;;;;;;5023129;28;20215;-71
2022/11/10 03:57:04;;;;;;;34.87;13.57;;;10.20;99.90;;;;;;5018981;28;20241;-72
2022/11/10 03:59:31;;;;;;;35.07;13.20;;;10.20;99.90;;;;;;5015764;28;20600;-72
2022/11/10 04:01:57;;;;;;;30.63;13.53;;;10.20;99.90;;;;;;5019761;28;20259;-73
2022/11/10 04:09:58;;;;;;;26.60;12.50;;;10.20;99.90;;;;;;5021277;28;20252;-72
2022/11/10 04:18:19;;;;;;;39.57;11.80;;;10.20;99.90;;;;;;5020180;28;20247;-73
2022/11/10 04:20:43;;;;;;;35.10;11.67;;;10.00;99.90;;;;;;5017839;28;20308;-71
2022/11/10 04:23:26;;;;;;;28.83;11.47;;;10.10;99.90;;;;;;5004293;28;20240;-73
2022/11/10 04:28:39;;;;;;;31.87;13.20;;;10.10;99.90;;;;;;5017284;28;20209;-72
2022/11/10 04:31:06;;;;;;;30.37;11.67;;;10.20;99.90;;;;;;5021659;28;20216;-72
2022/11/10 04:33:33;;;;;;;32.37;12.00;;;10.20;99.90;;;;;;5022518;28;20217;-72
2022/11/10 04:36:00;;;;;;;30.70;12.80;;;10.20;99.90;;;;;;5016335;28;20253;-71
2022/11/10 04:38:27;;;;;;;35.00;12.80;;;10.20;99.90;;;;;;5021090;28;20271;-73
2022/11/10 04:40:54;;;;;;;25.93;12.83;;;10.30;99.90;;;;;;5017667;28;20206;-74
2022/11/10 04:43:21;;;;;;;37.13;12.70;;;10.20;99.90;;;;;;5005803;28;20303;-71
2022/11/10 04:45:49;;;;;;;32.60;12.57;;;10.30;99.90;;;;;;5018033;28;20210;-73
2022/11/10 04:48:15;;;;;;;26.20;11.57;;;10.30;99.90;;;;;;5005213;28;20202;-73
2022/11/10 04:50:42;;;;;;;31.00;10.73;;;10.30;99.90;;;;;;5005968;28;20290;-72
2022/11/10 04:53:09;;;;;;;28.53;10.27;;;10.30;99.90;;;;;;5003970;28;20252;-73
2022/11/10 04:55:41;;;;;;;26.37;11.20;;;10.30;99.90;;;;;;5025702;28;20201;-73
2022/11/10 04:58:08;;;;;;;30.93;9.97;;;10.30;99.90;;;;;;5022279;28;20268;-72
2022/11/10 05:00:35;;;;;;;26.37;10.07;;;10.30;99.90;;;;;;5007436;28;20228;-73
2022/11/10 05:03:05;;;;;;;25.90;10.77;;;10.30;99.90;;;;;;5012518;28;20210;-72
2022/11/10 05:05:32;;;;;;;29.63;10.37;;;10.30;99.90;;;;;;5024319;28;20233;-71
2022/11/10 05:07:59;;;;;;;34.37;11.43;;;10.30;99.90;;;;;;5025669;28;20233;-72
2022/11/10 05:10:26;;;;;;;31.27;10.60;;;10.30;99.90;;;;;;5027751;28;20400;-72
2022/11/10 05:12:56;;;;;;;35.03;12.37;;;10.30;99.90;;;;;;5004708;28;20212;-72
2022/11/10 05:15:24;;;;;;;31.57;13.80;;;10.30;99.90;;;;;;5023542;28;20213;-73
2022/11/10 05:17:52;;;;;;;28.23;11.20;;;10.20;99.90;;;;;;5020952;28;20213;-73
2022/11/10 05:20:21;;;;;;;28.47;12.20;;;10.20;99.90;;;;;;5012039;28;20296;-73
2022/11/10 05:25:37;;;;;;;29.23;11.73;;;10.20;99.90;;;;;;5019968;28;20237;-73
2022/11/10 05:28:06;;;;;;;26.50;11.90;;;10.20;99.90;;;;;;5023754;28;20210;-74
2022/11/10 05:30:34;;;;;;;32.93;11.97;;;10.20;99.90;;;;;;5031600;28;20198;-73
2022/11/10 05:33:01;;;;;;;32.17;11.07;;;10.20;99.90;;;;;;5026324;28;20617;-72
2022/11/10 05:35:28;;;;;;;30.63;11.37;;;10.10;99.90;;;;;;5017793;28;20618;-72
2022/11/10 05:37:55;;;;;;;33.37;12.00;;;10.10;99.90;;;;;;5027383;28;20222;-72
2022/11/10 05:40:22;;;;;;;37.47;12.80;;;10.10;99.90;;;;;;5021281;28;20218;-72
2022/11/10 05:42:52;;;;;;;30.57;12.80;;;10.20;99.90;;;;;;5019378;28;20220;-72
2022/11/10 05:45:22;;;;;;;32.03;13.17;;;10.10;99.90;;;;;;5022730;28;20237;-73
2022/11/10 05:47:50;;;;;;;29.57;12.10;;;10.10;99.90;;;;;;5025416;28;20202;-73
2022/11/10 05:50:18;;;;;;;30.33;13.03;;;10.10;99.90;;;;;;5025914;28;20296;-73
2022/11/10 05:52:52;;;;;;;38.43;13.10;;;10.10;99.90;;;;;;5014267;28;20332;-72
2022/11/10 05:55:26;;;;;;;36.53;13.73;;;10.10;99.90;;;;;;5027754;28;20279;-73
2022/11/10 05:57:54;;;;;;;38.83;14.07;;;10.00;99.90;;;;;;5023869;28;20287;-72
2022/11/10 06:00:24;;;;;;;44.00;14.43;;;10.00;99.90;;;;;;5021703;28;20451;-72
2022/11/10 06:02:59;;;;;;;32.67;13.97;;;10.00;99.90;;;;;;5022621;28;20298;-72
2022/11/10 06:05:25;;;;;;;34.73;14.73;;;10.10;99.90;;;;;;5020809;28;20229;-72
2022/11/10 06:07:57;;;;;;;32.90;14.70;;;10.00;99.90;;;;;;5021934;28;20205;-73
2022/11/10 06:10:24;;;;;;;39.60;15.97;;;10.00;99.90;;;;;;5020055;28;21294;-73
2022/11/10 06:12:53;;;;;;;35.60;15.07;;;10.00;99.90;;;;;;5021052;28;20204;-73
2022/11/10 06:15:20;;;;;;;39.57;16.37;;;10.00;99.90;;;;;;5023634;28;20339;-72
2022/11/10 06:17:47;;;;;;;39.93;15.37;;;10.00;99.90;;;;;;5008519;28;20202;-73
2022/11/10 06:20:16;;;;;;;40.73;17.07;;;10.00;99.90;;;;;;5010039;28;20218;-73
2022/11/10 06:22:43;;;;;;;37.73;16.67;;;10.00;99.90;;;;;;5019131;28;20581;-73
2022/11/10 06:25:11;;;;;;;33.90;14.80;;;9.90;99.90;;;;;;5026639;28;20316;-73
2022/11/10 06:27:42;;;;;;;40.50;16.27;;;10.00;99.90;;;;;;5019929;28;20239;-73
2022/11/10 06:30:10;;;;;;;42.57;15.87;;;10.00;99.90;;;;;;5022595;28;20225;-72
2022/11/10 06:32:40;;;;;;;37.63;15.57;;;9.90;99.90;;;;;;5022359;28;20198;-72
2022/11/10 06:35:10;;;;;;;38.83;16.07;;;9.90;99.90;;;;;;5024652;28;20289;-73
2022/11/10 06:37:40;;;;;;;34.73;14.40;;;9.90;99.90;;;;;;5025124;28;20699;-72
2022/11/10 06:40:14;;;;;;;36.77;16.47;;;9.90;99.90;;;;;;5016334;28;20205;-72
2022/11/10 06:42:40;;;;;;;37.30;15.33;;;9.90;99.90;;;;;;5021830;28;20694;-72
2022/11/10 06:45:08;;;;;;;41.30;15.60;;;9.90;99.90;;;;;;5007552;28;20235;-72
2022/11/10 06:47:37;;;;;;;33.40;14.37;;;9.80;99.90;;;;;;5026041;28;20232;-73
2022/11/10 06:50:04;;;;;;;34.00;12.90;;;9.90;99.90;;;;;;5026905;28;20228;-72
2022/11/10 06:52:31;;;;;;;31.17;12.77;;;9.90;99.90;;;;;;5025113;28;20220;-73
2022/11/10 06:54:58;;;;;;;33.23;12.13;;;9.90;99.90;;;;;;5016358;28;20758;-72
2022/11/10 06:57:24;;;;;;;33.10;12.37;;;9.90;99.90;;;;;;4980784;28;1148027;-72
2022/11/10 06:59:51;;;;;;;30.17;10.77;;;9.90;99.90;;;;;;5001891;28;20743;-72
2022/11/10 07:02:18;;;;;;;34.20;11.07;;;9.90;99.90;;;;;;4993394;28;20319;-73
2022/11/10 07:04:45;;;;;;;32.63;11.37;;;9.90;99.90;;;;;;5023282;28;20222;-73
2022/11/10 07:07:11;;;;;;;29.83;10.83;;;10.00;99.90;;;;;;5025228;28;20290;-71
2022/11/10 07:09:38;;;;;;;32.33;10.70;;;9.90;99.90;;;;;;5021696;28;20692;-71
2022/11/10 07:12:05;;;;;;;36.50;12.73;;;9.90;99.90;;;;;;5005737;28;20218;-71
2022/11/10 07:14:32;;;;;;;30.73;11.53;;;9.90;99.90;;;;;;5009096;28;20584;-71
2022/11/10 07:16:59;;;;;;;28.37;9.83;;;9.90;99.90;;;;;;5021066;28;20209;-73
2022/11/10 07:19:26;;;;;;;25.67;9.37;;;10.00;99.90;;;;;;5018572;28;20205;-71
2022/11/10 07:21:53;;;;;;;34.53;9.73;;;9.90;99.90;;;;;;5007306;28;20240;-72
2022/11/10 07:24:20;;;;;;;27.43;9.60;;;10.00;99.90;;;;;;5023801;28;20636;-73
2022/11/10 07:26:46;;;;;;;28.73;9.00;;;10.00;99.90;;;;;;5023940;28;20209;-71
2022/11/10 07:29:13;;;;;;;32.00;9.30;;;10.10;99.90;;;;;;5023411;28;20210;-69
2022/11/10 07:31:40;;;;;;;23.57;9.10;;;10.10;99.90;;;;;;5025768;28;20545;-72
2022/11/10 07:34:08;;;;;;;32.67;8.73;;;10.10;99.90;;;;;;5025169;28;20285;-71
2022/11/10 07:36:34;;;;;;;28.23;9.53;;;10.10;99.90;;;;;;5022447;28;20256;-69
2022/11/10 07:39:01;;;;;;;29.73;9.17;;;10.10;99.90;;;;;;5023817;28;20685;-71
2022/11/10 07:41:28;;;;;;;23.37;9.23;;;10.10;99.90;;;;;;5007650;28;20263;-70
2022/11/10 07:43:55;;;;;;;22.47;8.50;;;10.10;99.90;;;;;;5023925;28;20210;-73
2022/11/10 07:46:22;;;;;;;26.83;8.13;;;10.10;99.90;;;;;;5022548;28;20210;-72
2022/11/10 07:48:49;;;;;;;24.33;8.10;;;10.10;99.90;;;;;;5022012;28;20301;-72
2022/11/10 07:51:15;;;;;;;19.23;8.03;;;10.20;99.90;;;;;;5026103;28;20220;-71
2022/11/10 07:53:43;;;;;;;21.50;7.23;;;10.20;99.90;;;;;;5018546;28;20201;-72
2022/11/10 07:56:10;;;;;;;19.17;7.40;;;10.30;99.90;;;;;;5001273;28;20280;-72
2022/11/10 07:58:37;;;;;;;19.53;7.07;;;10.30;99.90;;;;;;5024144;28;20607;-73
2022/11/10 08:01:04;;;;;;;25.83;7.07;;;10.30;99.90;;;;;;5023939;28;20367;-73
2022/11/10 08:03:31;;;;;;;24.57;6.23;;;10.40;99.90;;;;;;5023932;28;20926;-72
2022/11/10 08:05:58;;;;;;;21.17;6.43;;;10.40;99.90;;;;;;5023677;28;20257;-72
2022/11/10 08:08:28;;;;;;;22.90;6.50;;;10.40;99.90;;;;;;5022299;28;20371;-72
2022/11/10 08:10:56;;;;;;;25.80;6.30;;;10.50;99.90;;;;;;5020290;28;20761;-73
2022/11/10 08:13:23;;;;;;;23.27;6.60;;;10.50;99.90;;;;;;5024744;28;20303;-73
2022/11/10 08:15:50;;;;;;;19.40;6.40;;;10.50;99.90;;;;;;5027212;28;20297;-73
2022/11/10 08:18:22;;;;;;;22.57;6.40;;;10.60;99.90;;;;;;5022058;28;20297;-73
2022/11/10 08:20:51;;;;;;;19.93;5.70;;;10.60;99.90;;;;;;5026133;28;20217;-73
2022/11/10 08:23:18;;;;;;;23.93;6.37;;;10.60;99.90;;;;;;5024793;28;20702;-75
2022/11/10 08:25:52;;;;;;;27.03;6.77;;;10.70;99.90;;;;;;5021247;28;20586;-72
2022/11/10 08:28:19;;;;;;;20.63;7.43;;;10.70;99.90;;;;;;5023424;28;20202;-72
2022/11/10 08:30:49;;;;;;;21.53;6.80;;;10.80;99.90;;;;;;5028372;28;20205;-72
2022/11/10 08:33:18;;;;;;;21.43;6.47;;;10.80;99.90;;;;;;5022601;28;20206;-71
2022/11/10 08:35:47;;;;;;;17.07;5.93;;;10.90;99.90;;;;;;5025050;28;20610;-73
2022/11/10 08:38:20;;;;;;;18.93;6.73;;;11.00;99.90;;;;;;5029471;28;20646;-71
2022/11/10 08:40:49;;;;;;;23.33;7.10;;;11.00;99.90;;;;;;5007098;28;20210;-71
2022/11/10 08:43:17;;;;;;;18.77;7.90;;;11.10;99.90;;;;;;5024917;28;20206;-71
2022/11/10 08:45:45;;;;;;;26.67;6.23;;;11.20;99.90;;;;;;5023832;28;20555;-71
2022/11/10 08:48:17;;;;;;;16.73;5.87;;;11.30;99.90;;;;;;5025869;28;20285;-72
2022/11/10 08:50:45;;;;;;;21.17;6.20;;;11.40;99.90;;;;;;5011080;28;20295;-71
2022/11/10 08:53:14;;;;;;;17.33;5.67;;;11.50;99.90;;;;;;5028230;28;20614;-71
2022/11/10 08:55:44;;;;;;;17.93;5.93;;;11.50;99.90;;;;;;5026222;28;20210;-72
2022/11/10 08:58:15;;;;;;;19.53;7.60;;;11.60;99.90;;;;;;5027591;28;20230;-72
2022/11/10 09:00:43;;;;;;;22.63;6.57;;;11.70;99.90;;;;;;5028675;28;20400;-72
2022/11/10 09:03:18;;;;;;;25.40;6.90;;;11.70;99.90;;;;;;5028310;28;20201;-73
2022/11/10 09:05:47;;;;;;;24.90;7.40;;;11.70;99.90;;;;;;5025895;28;20233;-72
2022/11/10 09:08:19;;;;;;;20.80;5.47;;;11.80;99.90;;;;;;5029026;28;20562;-72
2022/11/10 09:10:49;;;;;;;18.03;6.13;;;11.80;99.90;;;;;;5026317;28;20268;-71
2022/11/10 09:13:20;;;;;;;18.57;6.87;;;11.80;99.90;;;;;;5025112;28;20208;-71
2022/11/10 09:15:55;;;;;;;20.93;5.73;;;11.80;99.90;;;;;;5006408;28;20896;-74
2022/11/10 09:18:22;;;;;;;21.67;5.70;;;11.90;99.90;;;;;;5022900;28;20889;-74
2022/11/10 09:20:49;;;;;;;14.77;5.90;;;11.90;99.90;;;;;;5022680;28;20229;-74
2022/11/10 09:23:17;;;;;;;17.77;5.53;;;12.00;99.90;;;;;;5007788;28;20271;-73
2022/11/10 09:25:50;;;;;;;18.93;5.30;;;12.00;99.90;;;;;;5026907;28;20218;-72
2022/11/10 09:28:21;;;;;;;17.17;5.87;;;12.10;99.90;;;;;;5006271;28;20206;-73
2022/11/10 09:30:49;;;;;;;17.50;5.10;;;12.20;99.90;;;;;;5030141;28;20666;-73
2022/11/10 09:33:17;;;;;;;19.03;4.47;;;12.20;99.90;;;;;;5028366;28;20237;-73
2022/11/10 09:35:44;;;;;;;18.07;4.87;;;12.30;99.90;;;;;;5025267;28;20293;-72
2022/11/10 09:38:12;;;;;;;14.53;4.40;;;12.30;99.90;;;;;;5028854;28;20289;-73
2022/11/10 09:40:47;;;;;;;22.60;5.10;;;12.40;99.90;;;;;;5010600;28;20655;-72
2022/11/10 09:43:27;;;;;;;24.27;5.33;;;12.40;99.90;;;;;;5006993;28;20198;-74
2022/11/10 09:45:57;;;;;;;22.77;4.90;;;12.50;99.90;;;;;;5027717;28;20253;-73
2022/11/10 09:48:40;;;;;;;20.50;4.67;;;12.50;99.90;;;;;;5022267;28;20297;-71
2022/11/10 09:51:17;;;;;;;17.03;3.87;;;12.50;99.90;;;;;;5024602;28;20224;-72
2022/11/10 09:53:55;;;;;;;17.97;4.50;;;12.50;99.90;;;;;;5020499;28;20204;-73
2022/11/10 09:56:32;;;;;;;16.43;4.83;;;12.50;99.90;;;;;;5027362;28;20554;-73
2022/11/10 09:59:02;;;;;;;14.33;4.07;;;12.60;99.90;;;;;;5026124;28;20264;-74
2022/11/10 10:01:50;;;;;;;20.17;3.87;;;12.70;99.90;;;;;;5013227;28;20218;-73
2022/11/10 10:04:54;;;;;;;19.60;3.73;;;12.70;99.90;;;;;;5024703;28;20198;-72
2022/11/10 10:07:36;;;;;;;15.37;3.50;;;12.80;99.90;;;;;;5026489;28;20220;-73
2022/11/10 10:10:17;;;;;;;18.43;4.20;;;12.90;99.90;;;;;;5028298;28;20201;-72
2022/11/10 10:12:53;;;;;;;16.87;3.83;;;12.90;99.90;;;;;;5026874;28;20252;-72
2022/11/10 10:15:43;;;;;;;18.33;3.70;;;13.00;99.90;;;;;;5025252;28;20822;-71
2022/11/10 10:18:30;;;;;;;13.13;3.97;;;13.10;99.90;;;;;;5006838;28;20203;-72
2022/11/10 10:21:37;;;;;;;14.93;4.20;;;13.10;99.90;;;;;;5023535;28;20221;-74
2022/11/10 10:24:10;;;;;;;17.27;3.40;;;13.20;99.90;;;;;;4995915;28;20204;-72
2022/11/10 10:26:52;;;;;;;23.30;4.60;;;13.30;99.90;;;;;;5014172;28;20229;-75
2022/11/10 10:29:23;;;;;;;13.27;4.17;;;13.40;99.90;;;;;;5026678;28;20696;-73
2022/11/10 10:31:51;;;;;;;13.07;4.10;;;13.40;99.90;;;;;;5005433;28;20348;-72
2022/11/10 10:34:26;;;;;;;15.07;3.70;;;13.50;99.90;;;;;;5026959;28;20194;-72
2022/11/10 10:36:53;;;;;;;17.23;3.50;;;13.60;99.90;;;;;;5008802;28;20225;-73
2022/11/10 10:39:29;;;;;;;19.10;5.13;;;13.70;99.90;;;;;;5026074;28;20226;-72
2022/11/10 10:41:56;;;;;;;16.60;3.77;;;13.70;99.90;;;;;;5027435;28;20316;-73
2022/11/10 10:44:23;;;;;;;14.43;3.70;;;13.70;99.90;;;;;;5025355;28;20292;-73
2022/11/10 10:46:58;;;;;;;13.73;4.03;;;13.80;99.90;;;;;;5026288;28;20272;-73
2022/11/10 10:49:26;;;;;;;22.70;4.67;;;13.80;99.90;;;;;;5021691;28;20221;-73
2022/11/10 10:52:03;;;;;;;17.53;4.20;;;13.90;99.90;;;;;;5003918;28;20213;-73
2022/11/10 10:54:32;;;;;;;18.87;4.87;;;13.90;99.90;;;;;;5024918;28;20629;-73
2022/11/10 10:57:22;;;;;;;16.23;3.60;;;13.90;99.90;;;;;;5024115;28;20230;-73
2022/11/10 10:59:50;;;;;;;18.47;3.20;;;14.00;99.90;;;;;;5027119;28;20293;-74
2022/11/10 11:02:25;;;;;;;13.90;3.27;;;14.10;99.90;;;;;;5023003;28;20205;-72
2022/11/10 11:05:17;;;;;;;16.50;3.73;;;14.10;99.90;;;;;;5021861;28;20209;-73
2022/11/10 11:08:16;;;;;;;21.20;3.83;;;14.20;99.90;;;;;;5003741;28;20257;-73
2022/11/10 11:10:44;;;;;;;17.13;3.70;;;14.20;99.90;;;;;;4997351;28;20206;-72
2022/11/10 11:13:13;;;;;;;14.97;3.70;;;14.20;99.90;;;;;;5023346;28;20252;-71
2022/11/10 11:15:40;;;;;;;18.13;4.93;;;14.30;99.90;;;;;;5025773;28;21192;-72
2022/11/10 11:18:15;;;;;;;17.03;3.60;;;14.30;99.90;;;;;;5025548;28;20557;-74
2022/11/10 11:20:51;;;;;;;18.53;4.37;;;14.30;99.90;;;;;;5004793;28;20689;-73
2022/11/10 11:23:21;;;;;;;18.20;3.77;;;14.30;99.90;;;;;;5025440;28;20289;-73
2022/11/10 11:25:50;;;;;;;13.87;3.90;;;14.30;99.90;;;;;;5011172;28;20229;-73
2022/11/10 11:28:46;;;;;;;15.00;4.57;;;14.40;99.90;;;;;;5021635;28;20301;-73
2022/11/10 11:31:41;;;;;;;16.17;4.00;;;14.40;99.90;;;;;;5003750;28;20212;-73
2022/11/10 11:34:37;;;;;;;17.93;3.70;;;14.50;99.90;;;;;;5004109;28;20304;-72
2022/11/10 11:37:31;;;;;;;11.70;3.57;;;14.60;99.90;;;;;;5017020;28;20221;-72
2022/11/10 11:40:33;;;;;;;19.97;4.33;;;14.70;99.90;;;;;;5024499;28;20324;-72
2022/11/10 11:43:22;;;;;;;13.60;3.30;;;14.90;99.90;;;;;;5014193;28;20212;-72
2022/11/10 11:46:21;;;;;;;13.75;4.57;;;14.90;99.90;;;;;;5023349;28;20221;-72
2022/11/10 11:48:56;;;;;;;15.65;3.35;;;15.00;99.90;;;;;;5013071;28;20237;-72
2022/11/10 11:51:45;;;;;;;17.77;3.72;;;15.20;99.90;;;;;;5023240;28;20229;-74
2022/11/10 11:54:53;;;;;;;18.92;4.00;;;15.40;99.90;;;;;;5021263;28;20659;-72
2022/11/10 11:57:44;;;;;;;17.23;3.72;;;15.40;99.90;;;;;;5022196;28;20268;-73
2022/11/10 12:00:17;;;;;;;16.73;3.40;;;15.50;99.90;;;;;;5008646;28;20241;-70
2022/11/10 12:03:06;;;;;;;12.43;3.30;;;15.50;99.90;;;;;;5022569;28;20197;-73
2022/11/10 12:05:48;;;;;;;16.38;3.20;;;15.50;99.90;;;;;;5024129;28;20250;-72
2022/11/10 12:08:26;;;;;;;18.30;3.45;;;15.40;99.90;;;;;;5023407;28;20221;-71
2022/11/10 12:11:08;;;;;;;16.15;3.60;;;15.50;99.90;;;;;;5019480;28;20202;-72
2022/11/10 12:14:13;;;;;;;16.48;3.45;;;15.40;99.90;;;;;;5023772;28;20279;-72
2022/11/10 12:16:44;;;;;;;13.38;3.20;;;15.40;99.90;;;;;;5022453;28;20202;-71
2022/11/10 12:19:36;;;;;;;17.25;3.88;;;15.40;99.90;;;;;;5025051;28;20574;-73
2022/11/10 12:22:11;;;;;;;12.88;3.40;;;15.50;99.90;;;;;;5020696;28;20305;-71
2022/11/10 12:25:11;;;;;;;13.05;3.13;;;15.50;99.90;;;;;;5023456;28;20217;-73
2022/11/10 12:27:46;;;;;;;13.10;3.15;;;15.60;99.90;;;;;;5022648;28;20256;-72
2022/11/10 12:30:16;;;;;;;18.73;3.92;;;15.50;99.90;;;;;;5011133;28;20581;-71
2022/11/10 12:33:05;;;;;;;15.02;3.78;;;15.50;99.90;;;;;;5024213;28;20288;-72
2022/11/10 12:35:40;;;;;;;14.93;3.75;;;15.50;99.90;;;;;;4974912;28;20237;-71
2022/11/10 12:38:15;;;;;;;12.68;3.70;;;15.50;99.90;;;;;;5024709;28;20281;-71
2022/11/10 12:40:47;;;;;;;14.38;3.58;;;15.50;99.90;;;;;;5025072;28;20220;-73
2022/11/10 12:43:21;;;;;;;14.88;3.10;;;15.50;99.90;;;;;;5022046;28;20628;-73
2022/11/10 12:45:55;;;;;;;12.05;2.90;;;15.60;99.90;;;;;;5022374;28;20225;-72
2022/11/10 12:48:24;;;;;;;12.88;4.15;;;15.60;99.90;;;;;;5020935;28;20285;-72
2022/11/10 12:51:02;;;;;;;14.07;3.53;;;15.60;99.90;;;;;;5021258;28;20583;-74
2022/11/10 12:53:32;;;;;;;12.80;3.22;;;15.50;99.90;;;;;;5024209;28;20248;-71
2022/11/10 12:56:06;;;;;;;14.20;3.55;;;15.50;99.90;;;;;;5021811;28;20198;-70
2022/11/10 12:58:33;;;;;;;14.38;3.10;;;15.50;99.90;;;;;;5023628;28;20239;-71
2022/11/10 13:01:02;;;;;;;14.02;3.50;;;15.50;99.90;;;;;;5021569;28;20206;-72
2022/11/10 13:03:33;;;;;;;12.43;3.15;;;15.50;99.90;;;;;;5023040;28;20202;-71
2022/11/10 13:06:03;;;;;;;14.48;3.42;;;15.50;99.90;;;;;;5025579;28;20222;-72
2022/11/10 13:08:51;;;;;;;15.85;3.60;;;15.50;99.90;;;;;;5024000;28;20234;-73
2022/11/10 13:11:31;;;;;;;9.80;2.90;;;15.40;99.90;;;;;;5024625;28;20256;-71
2022/11/10 13:14:01;;;;;;;15.48;3.03;;;15.40;99.90;;;;;;5008995;28;20571;-71
2022/11/10 13:16:40;;;;;;;14.77;3.17;;;15.50;99.90;;;;;;5008939;28;20552;-73